Tropical Cyclones
[Index]
Main Index Home Page Stock Weather Photos Extreme Storms Discussion Storm News and Storm Chasing Reports Tropical Cyclones / Hurricanes / Typhoons Weather Data and Links Wild Fires / Bushfires Weather Observation Techniques Weather Picture Catalogue Tornado Pictures and Reports Stock Video Footage and DVDs for sale
Season 2002-2003 Tropical Cyclone CRAIG Track Map
Season 2002-2003 Summaries: [BoM-AU] [JTWC-AU] [JTWC-SIO] [JTWC-SPAC] [JTWC-SH]
<<- Previous TC | JTWC 2002-2003 Season | Next TC ->>

click for intensity scale information  Lat/long Grid: Show Hide

 Date Labels: Show Hide

Joint Typhoon Warning Centre Cyclone Data

Name: CRAIG

08 Mar 2003 00:00 UTC to 13 Mar 2003 00:00 UTC

    date/time    lat    long     hPa   cat  kts
2003-03-08 00   12.0   129.0    1004         20          
2003-03-08 06   11.8   128.8    1002         25          
2003-03-08 12   11.5   128.8    1002         25          
2003-03-08 18   11.2   128.8    1002         25          
2003-03-09 00   10.9   129.2    1002         25          
2003-03-09 06   10.6   129.6    1002         25          
2003-03-09 12   10.7   130.1    1000         30          
2003-03-09 18   10.8   130.5    1000         30          
2003-03-10 00   10.9   130.8    1000         35          
2003-03-10 06   11.1   131.0     997         35          
2003-03-10 12   11.4   131.2     997         35          
2003-03-10 18   11.6   131.5     997         35          
2003-03-11 00   11.7   132.1     997         35          
2003-03-11 06   11.9   132.8     997         35          
2003-03-11 12   12.3   134.3     997         35          
2003-03-11 18   12.6   135.8     997         35          
2003-03-12 00   13.2   138.0     997         35          
2003-03-12 06   14.1   139.8     997         35          
2003-03-12 12   15.2   141.1     997         35          
2003-03-12 18   16.4   142.2    1000         30          
2003-03-13 00   17.8   142.6    1002         25          
Winds are 1-min average.

Tropical cyclone tracks developed by Michael Bath using data from the Joint Typhoon Warning Centre Best Tracks and Google Maps.


[Australian Severe Weather index] [Copyright Notice] [Email Contacts] [Search This Site] [Privacy Policy]
Document: tropical_cyclone_craig.htm Updated: 28 June 2017